sensor_id;sensor_type;location;lat;lon;timestamp;P1;durP1;ratioP1;P2;durP2;ratioP2
38479;SDS011;62333;51.980;5.934;2024-01-06T00:00:33;8.73;;;6.18;;
38479;SDS011;62333;51.980;5.934;2024-01-06T00:03:00;8.40;;;5.55;;
38479;SDS011;62333;51.980;5.934;2024-01-06T00:05:25;7.90;;;5.93;;
38479;SDS011;62333;51.980;5.934;2024-01-06T00:07:51;7.60;;;4.93;;
38479;SDS011;62333;51.980;5.934;2024-01-06T00:10:17;9.18;;;6.28;;
38479;SDS011;62333;51.980;5.934;2024-01-06T00:12:43;8.90;;;5.68;;
38479;SDS011;62333;51.980;5.934;2024-01-06T00:15:08;11.32;;;7.05;;
38479;SDS011;62333;51.980;5.934;2024-01-06T00:17:35;8.77;;;5.45;;
38479;SDS011;62333;51.980;5.934;2024-01-06T00:20:01;8.32;;;5.43;;
38479;SDS011;62333;51.980;5.934;2024-01-06T00:22:27;9.43;;;6.40;;
38479;SDS011;62333;51.980;5.934;2024-01-06T00:24:53;7.55;;;5.10;;
38479;SDS011;62333;51.980;5.934;2024-01-06T00:27:19;8.30;;;5.75;;
38479;SDS011;62333;51.980;5.934;2024-01-06T00:29:44;9.98;;;6.50;;
38479;SDS011;62333;51.980;5.934;2024-01-06T00:32:10;8.68;;;5.50;;
38479;SDS011;62333;51.980;5.934;2024-01-06T00:34:36;7.68;;;4.93;;
38479;SDS011;62333;51.980;5.934;2024-01-06T00:37:02;8.38;;;5.25;;
38479;SDS011;62333;51.980;5.934;2024-01-06T00:39:28;8.15;;;5.28;;
38479;SDS011;62333;51.980;5.934;2024-01-06T00:41:54;8.68;;;5.68;;
38479;SDS011;62333;51.980;5.934;2024-01-06T00:44:19;8.13;;;5.40;;
38479;SDS011;62333;51.980;5.934;2024-01-06T00:46:45;7.38;;;4.85;;
38479;SDS011;62333;51.980;5.934;2024-01-06T00:49:11;6.90;;;4.40;;
38479;SDS011;62333;51.980;5.934;2024-01-06T00:51:36;7.70;;;5.40;;
38479;SDS011;62333;51.980;5.934;2024-01-06T00:54:02;8.05;;;5.18;;
38479;SDS011;62333;51.980;5.934;2024-01-06T00:56:28;7.53;;;4.90;;
38479;SDS011;62333;51.980;5.934;2024-01-06T00:58:54;8.52;;;5.47;;
38479;SDS011;62333;51.980;5.934;2024-01-06T01:01:19;7.22;;;4.43;;
38479;SDS011;62333;51.980;5.934;2024-01-06T01:03:46;9.75;;;5.60;;
38479;SDS011;62333;51.980;5.934;2024-01-06T01:06:11;7.35;;;5.18;;
38479;SDS011;62333;51.980;5.934;2024-01-06T01:08:37;7.50;;;4.75;;
38479;SDS011;62333;51.980;5.934;2024-01-06T01:11:03;8.68;;;5.32;;
38479;SDS011;62333;51.980;5.934;2024-01-06T01:13:29;7.70;;;5.00;;
38479;SDS011;62333;51.980;5.934;2024-01-06T01:15:55;7.45;;;5.05;;
38479;SDS011;62333;51.980;5.934;2024-01-06T01:18:21;7.30;;;5.05;;
38479;SDS011;62333;51.980;5.934;2024-01-06T01:20:46;7.40;;;4.63;;
38479;SDS011;62333;51.980;5.934;2024-01-06T01:23:12;8.63;;;5.68;;
38479;SDS011;62333;51.980;5.934;2024-01-06T01:25:38;8.32;;;5.75;;
38479;SDS011;62333;51.980;5.934;2024-01-06T01:28:04;7.88;;;5.15;;
38479;SDS011;62333;51.980;5.934;2024-01-06T01:30:29;7.82;;;5.03;;
38479;SDS011;62333;51.980;5.934;2024-01-06T01:32:57;9.32;;;6.00;;
38479;SDS011;62333;51.980;5.934;2024-01-06T01:35:23;7.53;;;4.93;;
38479;SDS011;62333;51.980;5.934;2024-01-06T01:37:48;8.07;;;5.22;;
38479;SDS011;62333;51.980;5.934;2024-01-06T01:40:14;10.05;;;5.93;;
38479;SDS011;62333;51.980;5.934;2024-01-06T01:42:40;7.45;;;5.18;;
38479;SDS011;62333;51.980;5.934;2024-01-06T01:45:08;8.30;;;5.38;;
38479;SDS011;62333;51.980;5.934;2024-01-06T01:47:33;7.55;;;4.75;;
38479;SDS011;62333;51.980;5.934;2024-01-06T01:49:59;8.25;;;4.82;;
38479;SDS011;62333;51.980;5.934;2024-01-06T01:52:26;7.22;;;4.95;;
38479;SDS011;62333;51.980;5.934;2024-01-06T01:54:52;7.70;;;5.55;;
38479;SDS011;62333;51.980;5.934;2024-01-06T01:57:18;9.15;;;5.28;;
38479;SDS011;62333;51.980;5.934;2024-01-06T01:59:46;8.65;;;5.53;;
38479;SDS011;62333;51.980;5.934;2024-01-06T02:02:12;6.43;;;3.95;;
38479;SDS011;62333;51.980;5.934;2024-01-06T02:04:39;8.05;;;5.07;;
38479;SDS011;62333;51.980;5.934;2024-01-06T02:07:04;7.75;;;4.70;;
38479;SDS011;62333;51.980;5.934;2024-01-06T02:09:30;6.93;;;4.22;;
38479;SDS011;62333;51.980;5.934;2024-01-06T02:11:58;8.50;;;5.65;;
38479;SDS011;62333;51.980;5.934;2024-01-06T02:14:24;7.65;;;5.40;;
38479;SDS011;62333;51.980;5.934;2024-01-06T02:16:50;7.82;;;5.10;;
38479;SDS011;62333;51.980;5.934;2024-01-06T02:19:16;6.78;;;4.40;;
38479;SDS011;62333;51.980;5.934;2024-01-06T02:21:47;9.73;;;5.82;;
38479;SDS011;62333;51.980;5.934;2024-01-06T02:24:14;7.85;;;5.85;;
38479;SDS011;62333;51.980;5.934;2024-01-06T02:26:39;10.18;;;7.25;;
38479;SDS011;62333;51.980;5.934;2024-01-06T02:29:05;9.30;;;6.13;;
38479;SDS011;62333;51.980;5.934;2024-01-06T02:31:30;11.07;;;7.75;;
38479;SDS011;62333;51.980;5.934;2024-01-06T02:33:56;10.55;;;6.60;;
38479;SDS011;62333;51.980;5.934;2024-01-06T02:36:22;10.57;;;6.28;;
38479;SDS011;62333;51.980;5.934;2024-01-06T02:38:47;12.70;;;7.13;;
38479;SDS011;62333;51.980;5.934;2024-01-06T02:41:13;9.77;;;7.20;;
38479;SDS011;62333;51.980;5.934;2024-01-06T02:43:39;10.02;;;6.55;;
38479;SDS011;62333;51.980;5.934;2024-01-06T02:46:04;12.27;;;8.23;;
38479;SDS011;62333;51.980;5.934;2024-01-06T02:48:31;10.48;;;7.68;;
38479;SDS011;62333;51.980;5.934;2024-01-06T02:50:57;11.40;;;8.70;;
38479;SDS011;62333;51.980;5.934;2024-01-06T02:53:22;10.82;;;7.18;;
38479;SDS011;62333;51.980;5.934;2024-01-06T02:55:48;9.93;;;6.47;;
38479;SDS011;62333;51.980;5.934;2024-01-06T02:58:14;11.80;;;8.25;;
38479;SDS011;62333;51.980;5.934;2024-01-06T03:00:39;11.90;;;8.23;;
38479;SDS011;62333;51.980;5.934;2024-01-06T03:03:05;11.48;;;8.00;;
38479;SDS011;62333;51.980;5.934;2024-01-06T03:05:31;9.82;;;7.05;;
38479;SDS011;62333;51.980;5.934;2024-01-06T03:07:56;12.13;;;7.65;;
38479;SDS011;62333;51.980;5.934;2024-01-06T03:10:22;9.75;;;6.63;;
38479;SDS011;62333;51.980;5.934;2024-01-06T03:12:48;9.32;;;6.00;;
38479;SDS011;62333;51.980;5.934;2024-01-06T03:15:13;10.93;;;7.28;;
38479;SDS011;62333;51.980;5.934;2024-01-06T03:17:39;10.15;;;7.03;;
38479;SDS011;62333;51.980;5.934;2024-01-06T03:20:05;12.38;;;8.98;;
38479;SDS011;62333;51.980;5.934;2024-01-06T03:22:32;10.90;;;7.05;;
38479;SDS011;62333;51.980;5.934;2024-01-06T03:24:58;10.55;;;7.20;;
38479;SDS011;62333;51.980;5.934;2024-01-06T03:27:23;9.07;;;6.53;;
38479;SDS011;62333;51.980;5.934;2024-01-06T03:29:49;10.60;;;7.97;;
38479;SDS011;62333;51.980;5.934;2024-01-06T03:32:15;12.85;;;8.73;;
38479;SDS011;62333;51.980;5.934;2024-01-06T03:34:41;11.20;;;7.47;;
38479;SDS011;62333;51.980;5.934;2024-01-06T03:37:07;11.25;;;7.72;;
38479;SDS011;62333;51.980;5.934;2024-01-06T03:39:32;13.45;;;9.07;;
38479;SDS011;62333;51.980;5.934;2024-01-06T03:41:59;13.98;;;8.73;;
38479;SDS011;62333;51.980;5.934;2024-01-06T03:44:25;10.23;;;7.20;;
38479;SDS011;62333;51.980;5.934;2024-01-06T03:46:55;9.75;;;7.50;;
38479;SDS011;62333;51.980;5.934;2024-01-06T03:49:24;14.52;;;7.72;;
38479;SDS011;62333;51.980;5.934;2024-01-06T03:51:51;9.10;;;6.65;;
38479;SDS011;62333;51.980;5.934;2024-01-06T03:54:17;9.15;;;6.25;;
38479;SDS011;62333;51.980;5.934;2024-01-06T03:56:42;9.93;;;6.82;;
38479;SDS011;62333;51.980;5.934;2024-01-06T03:59:08;10.85;;;8.00;;
38479;SDS011;62333;51.980;5.934;2024-01-06T04:01:34;11.52;;;7.25;;
38479;SDS011;62333;51.980;5.934;2024-01-06T04:04:04;10.70;;;7.47;;
38479;SDS011;62333;51.980;5.934;2024-01-06T04:06:30;12.13;;;7.18;;
38479;SDS011;62333;51.980;5.934;2024-01-06T04:08:59;11.00;;;6.78;;
38479;SDS011;62333;51.980;5.934;2024-01-06T04:11:25;11.73;;;7.63;;
38479;SDS011;62333;51.980;5.934;2024-01-06T04:13:51;11.95;;;7.82;;
38479;SDS011;62333;51.980;5.934;2024-01-06T04:16:17;13.95;;;7.50;;
38479;SDS011;62333;51.980;5.934;2024-01-06T04:18:42;13.18;;;8.25;;
38479;SDS011;62333;51.980;5.934;2024-01-06T04:21:08;11.57;;;7.60;;
38479;SDS011;62333;51.980;5.934;2024-01-06T04:23:34;8.43;;;6.53;;
38479;SDS011;62333;51.980;5.934;2024-01-06T04:25:59;12.95;;;8.15;;
38479;SDS011;62333;51.980;5.934;2024-01-06T04:28:26;12.55;;;7.32;;
38479;SDS011;62333;51.980;5.934;2024-01-06T04:30:52;13.70;;;8.73;;
38479;SDS011;62333;51.980;5.934;2024-01-06T04:33:18;10.38;;;7.47;;
38479;SDS011;62333;51.980;5.934;2024-01-06T04:35:44;12.60;;;8.48;;
38479;SDS011;62333;51.980;5.934;2024-01-06T04:38:09;11.27;;;7.72;;
38479;SDS011;62333;51.980;5.934;2024-01-06T04:40:35;14.10;;;8.35;;
38479;SDS011;62333;51.980;5.934;2024-01-06T04:43:01;14.15;;;9.70;;
38479;SDS011;62333;51.980;5.934;2024-01-06T04:45:26;11.95;;;8.13;;
38479;SDS011;62333;51.980;5.934;2024-01-06T04:47:52;14.20;;;9.77;;
38479;SDS011;62333;51.980;5.934;2024-01-06T04:50:18;13.25;;;8.52;;
38479;SDS011;62333;51.980;5.934;2024-01-06T04:52:43;14.55;;;8.60;;
38479;SDS011;62333;51.980;5.934;2024-01-06T04:55:09;12.18;;;9.25;;
38479;SDS011;62333;51.980;5.934;2024-01-06T04:57:36;13.77;;;9.10;;
38479;SDS011;62333;51.980;5.934;2024-01-06T05:00:02;12.73;;;8.27;;
38479;SDS011;62333;51.980;5.934;2024-01-06T05:02:28;12.45;;;8.88;;
38479;SDS011;62333;51.980;5.934;2024-01-06T05:04:54;11.30;;;6.93;;
38479;SDS011;62333;51.980;5.934;2024-01-06T05:07:20;8.93;;;6.82;;
38479;SDS011;62333;51.980;5.934;2024-01-06T05:09:45;12.40;;;6.65;;
38479;SDS011;62333;51.980;5.934;2024-01-06T05:12:11;9.75;;;6.63;;
38479;SDS011;62333;51.980;5.934;2024-01-06T05:14:37;9.35;;;6.05;;
38479;SDS011;62333;51.980;5.934;2024-01-06T05:17:02;9.20;;;5.97;;
38479;SDS011;62333;51.980;5.934;2024-01-06T05:19:28;10.13;;;6.70;;
38479;SDS011;62333;51.980;5.934;2024-01-06T05:21:54;10.35;;;6.18;;
38479;SDS011;62333;51.980;5.934;2024-01-06T05:24:20;9.63;;;6.78;;
38479;SDS011;62333;51.980;5.934;2024-01-06T05:26:46;9.40;;;7.47;;
38479;SDS011;62333;51.980;5.934;2024-01-06T05:29:11;10.70;;;6.95;;
38479;SDS011;62333;51.980;5.934;2024-01-06T05:31:37;9.73;;;6.50;;
38479;SDS011;62333;51.980;5.934;2024-01-06T05:34:03;8.45;;;5.97;;
38479;SDS011;62333;51.980;5.934;2024-01-06T05:36:29;10.00;;;7.13;;
38479;SDS011;62333;51.980;5.934;2024-01-06T05:38:55;10.32;;;6.80;;
38479;SDS011;62333;51.980;5.934;2024-01-06T05:41:21;11.20;;;6.82;;
38479;SDS011;62333;51.980;5.934;2024-01-06T05:43:46;10.13;;;6.40;;
38479;SDS011;62333;51.980;5.934;2024-01-06T05:46:15;10.75;;;6.63;;
38479;SDS011;62333;51.980;5.934;2024-01-06T05:51:21;8.90;;;5.72;;
38479;SDS011;62333;51.980;5.934;2024-01-06T05:53:47;10.57;;;7.20;;
38479;SDS011;62333;51.980;5.934;2024-01-06T05:56:21;10.88;;;6.78;;
38479;SDS011;62333;51.980;5.934;2024-01-06T05:58:49;11.70;;;7.32;;
38479;SDS011;62333;51.980;5.934;2024-01-06T06:01:15;11.10;;;6.88;;
38479;SDS011;62333;51.980;5.934;2024-01-06T06:03:40;10.05;;;6.25;;
38479;SDS011;62333;51.980;5.934;2024-01-06T06:06:06;11.32;;;6.78;;
38479;SDS011;62333;51.980;5.934;2024-01-06T06:08:31;9.30;;;7.22;;
38479;SDS011;62333;51.980;5.934;2024-01-06T06:10:57;9.00;;;6.32;;
38479;SDS011;62333;51.980;5.934;2024-01-06T06:13:29;11.25;;;5.60;;
38479;SDS011;62333;51.980;5.934;2024-01-06T06:15:54;12.07;;;7.07;;
38479;SDS011;62333;51.980;5.934;2024-01-06T06:18:21;11.85;;;7.65;;
38479;SDS011;62333;51.980;5.934;2024-01-06T06:20:46;9.40;;;7.10;;
38479;SDS011;62333;51.980;5.934;2024-01-06T06:23:12;10.65;;;7.25;;
38479;SDS011;62333;51.980;5.934;2024-01-06T06:25:38;9.23;;;5.82;;
38479;SDS011;62333;51.980;5.934;2024-01-06T06:28:04;11.48;;;6.80;;
38479;SDS011;62333;51.980;5.934;2024-01-06T06:30:31;10.15;;;6.70;;
38479;SDS011;62333;51.980;5.934;2024-01-06T06:32:57;10.50;;;6.72;;
38479;SDS011;62333;51.980;5.934;2024-01-06T06:35:23;9.93;;;6.07;;
38479;SDS011;62333;51.980;5.934;2024-01-06T06:37:49;9.77;;;7.10;;
38479;SDS011;62333;51.980;5.934;2024-01-06T06:40:15;8.43;;;5.63;;
38479;SDS011;62333;51.980;5.934;2024-01-06T06:42:40;10.73;;;6.97;;
38479;SDS011;62333;51.980;5.934;2024-01-06T06:45:06;13.73;;;7.35;;
38479;SDS011;62333;51.980;5.934;2024-01-06T06:47:32;9.18;;;5.95;;
38479;SDS011;62333;51.980;5.934;2024-01-06T06:49:58;7.82;;;5.10;;
38479;SDS011;62333;51.980;5.934;2024-01-06T06:52:24;9.98;;;6.93;;
38479;SDS011;62333;51.980;5.934;2024-01-06T06:54:49;9.10;;;5.45;;
38479;SDS011;62333;51.980;5.934;2024-01-06T06:57:17;8.38;;;6.25;;
38479;SDS011;62333;51.980;5.934;2024-01-06T06:59:43;7.30;;;5.10;;
38479;SDS011;62333;51.980;5.934;2024-01-06T07:02:09;11.68;;;5.70;;
38479;SDS011;62333;51.980;5.934;2024-01-06T07:04:35;7.78;;;4.40;;
38479;SDS011;62333;51.980;5.934;2024-01-06T07:07:01;7.70;;;5.13;;
38479;SDS011;62333;51.980;5.934;2024-01-06T07:09:26;8.63;;;5.78;;
38479;SDS011;62333;51.980;5.934;2024-01-06T07:11:52;10.63;;;5.93;;
38479;SDS011;62333;51.980;5.934;2024-01-06T07:14:18;7.00;;;4.78;;
38479;SDS011;62333;51.980;5.934;2024-01-06T07:16:43;8.77;;;5.82;;
38479;SDS011;62333;51.980;5.934;2024-01-06T07:19:09;8.27;;;5.53;;
38479;SDS011;62333;51.980;5.934;2024-01-06T07:21:35;9.35;;;6.70;;
38479;SDS011;62333;51.980;5.934;2024-01-06T07:24:02;10.70;;;7.03;;
38479;SDS011;62333;51.980;5.934;2024-01-06T07:26:28;8.60;;;5.68;;
38479;SDS011;62333;51.980;5.934;2024-01-06T07:28:53;7.90;;;5.63;;
38479;SDS011;62333;51.980;5.934;2024-01-06T07:31:20;7.30;;;5.38;;
38479;SDS011;62333;51.980;5.934;2024-01-06T07:33:45;6.43;;;4.95;;
38479;SDS011;62333;51.980;5.934;2024-01-06T07:36:11;8.77;;;4.93;;
38479;SDS011;62333;51.980;5.934;2024-01-06T07:38:36;6.50;;;4.35;;
38479;SDS011;62333;51.980;5.934;2024-01-06T07:41:02;7.20;;;4.68;;
38479;SDS011;62333;51.980;5.934;2024-01-06T07:43:29;8.02;;;5.15;;
38479;SDS011;62333;51.980;5.934;2024-01-06T07:45:55;6.22;;;4.15;;
38479;SDS011;62333;51.980;5.934;2024-01-06T07:48:21;6.88;;;4.63;;
38479;SDS011;62333;51.980;5.934;2024-01-06T07:50:47;9.20;;;4.78;;
38479;SDS011;62333;51.980;5.934;2024-01-06T07:53:13;7.53;;;4.85;;
38479;SDS011;62333;51.980;5.934;2024-01-06T07:55:41;6.85;;;4.57;;
38479;SDS011;62333;51.980;5.934;2024-01-06T07:58:07;8.27;;;4.40;;
38479;SDS011;62333;51.980;5.934;2024-01-06T08:00:33;8.45;;;4.80;;
38479;SDS011;62333;51.980;5.934;2024-01-06T08:02:58;8.02;;;5.10;;
38479;SDS011;62333;51.980;5.934;2024-01-06T08:05:25;7.18;;;4.35;;
38479;SDS011;62333;51.980;5.934;2024-01-06T08:07:51;6.30;;;3.92;;
38479;SDS011;62333;51.980;5.934;2024-01-06T08:10:17;7.80;;;4.88;;
38479;SDS011;62333;51.980;5.934;2024-01-06T08:12:42;7.82;;;4.60;;
38479;SDS011;62333;51.980;5.934;2024-01-06T08:15:08;9.48;;;4.93;;
38479;SDS011;62333;51.980;5.934;2024-01-06T08:17:34;7.82;;;4.53;;
38479;SDS011;62333;51.980;5.934;2024-01-06T08:20:00;6.63;;;4.82;;
38479;SDS011;62333;51.980;5.934;2024-01-06T08:22:26;8.13;;;4.88;;
38479;SDS011;62333;51.980;5.934;2024-01-06T08:24:52;8.48;;;5.00;;
38479;SDS011;62333;51.980;5.934;2024-01-06T08:27:18;7.97;;;4.57;;
38479;SDS011;62333;51.980;5.934;2024-01-06T08:29:43;7.97;;;4.40;;
38479;SDS011;62333;51.980;5.934;2024-01-06T08:32:09;7.78;;;4.57;;
38479;SDS011;62333;51.980;5.934;2024-01-06T08:34:36;8.15;;;5.53;;
38479;SDS011;62333;51.980;5.934;2024-01-06T08:37:02;9.18;;;5.35;;
38479;SDS011;62333;51.980;5.934;2024-01-06T08:39:29;9.70;;;5.15;;
38479;SDS011;62333;51.980;5.934;2024-01-06T08:41:54;10.48;;;6.78;;
38479;SDS011;62333;51.980;5.934;2024-01-06T08:44:20;8.38;;;5.28;;
38479;SDS011;62333;51.980;5.934;2024-01-06T08:46:45;8.20;;;4.78;;
38479;SDS011;62333;51.980;5.934;2024-01-06T08:49:11;10.30;;;5.35;;
38479;SDS011;62333;51.980;5.934;2024-01-06T08:51:37;11.13;;;5.35;;
38479;SDS011;62333;51.980;5.934;2024-01-06T08:54:02;11.27;;;6.35;;
38479;SDS011;62333;51.980;5.934;2024-01-06T08:56:31;11.18;;;6.65;;
38479;SDS011;62333;51.980;5.934;2024-01-06T08:58:57;8.82;;;5.32;;
38479;SDS011;62333;51.980;5.934;2024-01-06T09:01:23;11.35;;;6.85;;
38479;SDS011;62333;51.980;5.934;2024-01-06T09:03:49;9.02;;;5.85;;
38479;SDS011;62333;51.980;5.934;2024-01-06T09:06:15;13.90;;;6.72;;
38479;SDS011;62333;51.980;5.934;2024-01-06T09:08:41;8.95;;;4.57;;
38479;SDS011;62333;51.980;5.934;2024-01-06T09:11:06;10.80;;;5.53;;
38479;SDS011;62333;51.980;5.934;2024-01-06T09:13:32;11.55;;;5.90;;
38479;SDS011;62333;51.980;5.934;2024-01-06T09:15:58;10.10;;;5.25;;
38479;SDS011;62333;51.980;5.934;2024-01-06T09:18:25;9.98;;;6.28;;
38479;SDS011;62333;51.980;5.934;2024-01-06T09:20:51;11.25;;;7.30;;
38479;SDS011;62333;51.980;5.934;2024-01-06T09:23:17;10.20;;;6.40;;
38479;SDS011;62333;51.980;5.934;2024-01-06T09:25:44;10.15;;;6.18;;
38479;SDS011;62333;51.980;5.934;2024-01-06T09:28:10;10.35;;;6.03;;
38479;SDS011;62333;51.980;5.934;2024-01-06T09:30:36;12.75;;;7.50;;
38479;SDS011;62333;51.980;5.934;2024-01-06T09:33:02;11.82;;;7.55;;
38479;SDS011;62333;51.980;5.934;2024-01-06T09:35:28;12.23;;;7.32;;
38479;SDS011;62333;51.980;5.934;2024-01-06T09:37:53;12.23;;;6.93;;
38479;SDS011;62333;51.980;5.934;2024-01-06T09:40:23;10.30;;;6.68;;
38479;SDS011;62333;51.980;5.934;2024-01-06T09:42:49;11.75;;;7.25;;
38479;SDS011;62333;51.980;5.934;2024-01-06T09:45:16;16.10;;;8.68;;
38479;SDS011;62333;51.980;5.934;2024-01-06T09:47:41;11.05;;;5.95;;
38479;SDS011;62333;51.980;5.934;2024-01-06T09:50:11;11.23;;;6.55;;
38479;SDS011;62333;51.980;5.934;2024-01-06T09:52:41;13.18;;;6.72;;
38479;SDS011;62333;51.980;5.934;2024-01-06T09:55:11;11.30;;;6.32;;
38479;SDS011;62333;51.980;5.934;2024-01-06T09:57:38;17.20;;;9.75;;
38479;SDS011;62333;51.980;5.934;2024-01-06T10:00:04;11.82;;;6.85;;
38479;SDS011;62333;51.980;5.934;2024-01-06T10:02:30;11.38;;;6.10;;
38479;SDS011;62333;51.980;5.934;2024-01-06T10:04:58;11.60;;;7.35;;
38479;SDS011;62333;51.980;5.934;2024-01-06T10:07:28;10.75;;;7.10;;
38479;SDS011;62333;51.980;5.934;2024-01-06T10:09:56;9.65;;;6.25;;
38479;SDS011;62333;51.980;5.934;2024-01-06T10:12:25;9.77;;;5.68;;
38479;SDS011;62333;51.980;5.934;2024-01-06T10:14:51;10.27;;;6.43;;
38479;SDS011;62333;51.980;5.934;2024-01-06T10:17:18;10.27;;;5.85;;
38479;SDS011;62333;51.980;5.934;2024-01-06T10:19:47;9.23;;;6.00;;
38479;SDS011;62333;51.980;5.934;2024-01-06T10:22:13;12.45;;;7.13;;
38479;SDS011;62333;51.980;5.934;2024-01-06T10:24:39;9.43;;;5.97;;
38479;SDS011;62333;51.980;5.934;2024-01-06T10:27:05;9.43;;;6.32;;
38479;SDS011;62333;51.980;5.934;2024-01-06T10:29:31;14.40;;;8.25;;
38479;SDS011;62333;51.980;5.934;2024-01-06T10:31:57;9.70;;;7.10;;
38479;SDS011;62333;51.980;5.934;2024-01-06T10:34:24;9.40;;;5.65;;
38479;SDS011;62333;51.980;5.934;2024-01-06T10:36:50;10.02;;;6.15;;
38479;SDS011;62333;51.980;5.934;2024-01-06T10:39:19;9.95;;;6.55;;
38479;SDS011;62333;51.980;5.934;2024-01-06T10:41:45;11.32;;;6.97;;
38479;SDS011;62333;51.980;5.934;2024-01-06T10:44:13;11.50;;;6.70;;
38479;SDS011;62333;51.980;5.934;2024-01-06T10:46:40;10.48;;;6.78;;
38479;SDS011;62333;51.980;5.934;2024-01-06T10:49:07;10.13;;;6.28;;
38479;SDS011;62333;51.980;5.934;2024-01-06T10:51:36;9.65;;;6.78;;
38479;SDS011;62333;51.980;5.934;2024-01-06T10:54:05;10.25;;;6.47;;
38479;SDS011;62333;51.980;5.934;2024-01-06T10:56:37;9.35;;;6.18;;
38479;SDS011;62333;51.980;5.934;2024-01-06T10:59:06;9.35;;;4.60;;
38479;SDS011;62333;51.980;5.934;2024-01-06T11:01:33;9.65;;;6.47;;
38479;SDS011;62333;51.980;5.934;2024-01-06T11:04:00;6.00;;;4.47;;
38479;SDS011;62333;51.980;5.934;2024-01-06T11:06:29;8.95;;;4.60;;
38479;SDS011;62333;51.980;5.934;2024-01-06T11:09:04;9.38;;;6.70;;
38479;SDS011;62333;51.980;5.934;2024-01-06T11:11:36;8.35;;;4.82;;
38479;SDS011;62333;51.980;5.934;2024-01-06T11:14:18;7.57;;;5.00;;
38479;SDS011;62333;51.980;5.934;2024-01-06T11:16:49;8.18;;;5.60;;
38479;SDS011;62333;51.980;5.934;2024-01-06T11:19:48;9.13;;;5.93;;
38479;SDS011;62333;51.980;5.934;2024-01-06T11:22:17;10.00;;;5.97;;
38479;SDS011;62333;51.980;5.934;2024-01-06T11:24:55;10.60;;;6.03;;
38479;SDS011;62333;51.980;5.934;2024-01-06T11:27:23;10.25;;;5.25;;
38479;SDS011;62333;51.980;5.934;2024-01-06T11:29:56;10.50;;;5.43;;
38479;SDS011;62333;51.980;5.934;2024-01-06T11:32:28;11.35;;;7.10;;
38479;SDS011;62333;51.980;5.934;2024-01-06T11:35:04;8.60;;;5.82;;
38479;SDS011;62333;51.980;5.934;2024-01-06T11:40:11;12.43;;;7.07;;
38479;SDS011;62333;51.980;5.934;2024-01-06T11:45:32;11.90;;;6.63;;
38479;SDS011;62333;51.980;5.934;2024-01-06T11:47:59;9.32;;;6.20;;
38479;SDS011;62333;51.980;5.934;2024-01-06T11:50:33;12.45;;;6.50;;
38479;SDS011;62333;51.980;5.934;2024-01-06T11:53:01;10.68;;;6.47;;
38479;SDS011;62333;51.980;5.934;2024-01-06T11:55:27;8.70;;;5.18;;
38479;SDS011;62333;51.980;5.934;2024-01-06T11:57:56;9.13;;;5.97;;
38479;SDS011;62333;51.980;5.934;2024-01-06T12:00:22;9.88;;;5.13;;
38479;SDS011;62333;51.980;5.934;2024-01-06T12:02:49;8.02;;;4.45;;
38479;SDS011;62333;51.980;5.934;2024-01-06T12:05:15;8.85;;;5.53;;
38479;SDS011;62333;51.980;5.934;2024-01-06T12:07:43;7.40;;;5.43;;
38479;SDS011;62333;51.980;5.934;2024-01-06T12:10:22;8.23;;;5.35;;
38479;SDS011;62333;51.980;5.934;2024-01-06T12:13:22;8.88;;;5.10;;
38479;SDS011;62333;51.980;5.934;2024-01-06T12:15:42;7.05;;;3.60;;
38479;SDS011;62333;51.980;5.934;2024-01-06T12:18:08;8.57;;;5.07;;
38479;SDS011;62333;51.980;5.934;2024-01-06T12:20:33;8.18;;;4.82;;
38479;SDS011;62333;51.980;5.934;2024-01-06T12:22:59;9.10;;;5.43;;
38479;SDS011;62333;51.980;5.934;2024-01-06T12:25:26;7.30;;;4.13;;
38479;SDS011;62333;51.980;5.934;2024-01-06T12:27:53;7.22;;;5.00;;
38479;SDS011;62333;51.980;5.934;2024-01-06T12:30:20;6.75;;;5.78;;
38479;SDS011;62333;51.980;5.934;2024-01-06T12:32:48;7.70;;;5.22;;
38479;SDS011;62333;51.980;5.934;2024-01-06T12:35:15;9.57;;;6.22;;
38479;SDS011;62333;51.980;5.934;2024-01-06T12:37:41;8.93;;;5.00;;
38479;SDS011;62333;51.980;5.934;2024-01-06T12:40:08;9.68;;;5.78;;
38479;SDS011;62333;51.980;5.934;2024-01-06T12:42:35;9.95;;;5.13;;
38479;SDS011;62333;51.980;5.934;2024-01-06T12:45:01;7.03;;;4.65;;
38479;SDS011;62333;51.980;5.934;2024-01-06T12:47:27;8.07;;;4.88;;
38479;SDS011;62333;51.980;5.934;2024-01-06T12:49:53;8.10;;;5.32;;
38479;SDS011;62333;51.980;5.934;2024-01-06T12:52:19;7.13;;;5.00;;
38479;SDS011;62333;51.980;5.934;2024-01-06T12:54:44;12.43;;;5.68;;
38479;SDS011;62333;51.980;5.934;2024-01-06T12:57:11;12.30;;;6.03;;
38479;SDS011;62333;51.980;5.934;2024-01-06T12:59:36;9.10;;;5.88;;
38479;SDS011;62333;51.980;5.934;2024-01-06T13:02:02;9.88;;;6.13;;
38479;SDS011;62333;51.980;5.934;2024-01-06T13:04:28;9.82;;;6.05;;
38479;SDS011;62333;51.980;5.934;2024-01-06T13:06:53;7.95;;;5.95;;
38479;SDS011;62333;51.980;5.934;2024-01-06T13:09:19;9.32;;;4.82;;
38479;SDS011;62333;51.980;5.934;2024-01-06T13:11:48;11.25;;;6.20;;
38479;SDS011;62333;51.980;5.934;2024-01-06T13:14:15;12.63;;;6.47;;
38479;SDS011;62333;51.980;5.934;2024-01-06T13:16:41;10.10;;;6.90;;
38479;SDS011;62333;51.980;5.934;2024-01-06T13:19:07;8.48;;;5.28;;
38479;SDS011;62333;51.980;5.934;2024-01-06T13:21:33;9.57;;;6.47;;
38479;SDS011;62333;51.980;5.934;2024-01-06T13:24:00;14.45;;;7.78;;
38479;SDS011;62333;51.980;5.934;2024-01-06T13:26:27;9.85;;;6.05;;
38479;SDS011;62333;51.980;5.934;2024-01-06T13:28:53;9.13;;;5.68;;
38479;SDS011;62333;51.980;5.934;2024-01-06T13:31:19;10.15;;;6.35;;
38479;SDS011;62333;51.980;5.934;2024-01-06T13:33:45;10.90;;;6.40;;
38479;SDS011;62333;51.980;5.934;2024-01-06T13:36:11;10.82;;;6.30;;
38479;SDS011;62333;51.980;5.934;2024-01-06T13:38:37;11.98;;;8.80;;
38479;SDS011;62333;51.980;5.934;2024-01-06T13:41:03;12.07;;;8.10;;
38479;SDS011;62333;51.980;5.934;2024-01-06T13:43:29;13.48;;;8.57;;
38479;SDS011;62333;51.980;5.934;2024-01-06T13:45:56;9.20;;;6.28;;
38479;SDS011;62333;51.980;5.934;2024-01-06T13:48:22;10.48;;;6.80;;
38479;SDS011;62333;51.980;5.934;2024-01-06T13:50:48;12.30;;;8.25;;
38479;SDS011;62333;51.980;5.934;2024-01-06T13:53:14;10.38;;;6.93;;
38479;SDS011;62333;51.980;5.934;2024-01-06T13:55:40;10.70;;;7.85;;
38479;SDS011;62333;51.980;5.934;2024-01-06T13:58:06;14.48;;;7.88;;
38479;SDS011;62333;51.980;5.934;2024-01-06T14:00:34;12.40;;;8.52;;
38479;SDS011;62333;51.980;5.934;2024-01-06T14:03:01;12.55;;;7.30;;
38479;SDS011;62333;51.980;5.934;2024-01-06T14:05:27;11.43;;;8.13;;
38479;SDS011;62333;51.980;5.934;2024-01-06T14:07:53;10.77;;;7.22;;
38479;SDS011;62333;51.980;5.934;2024-01-06T14:10:19;11.45;;;8.10;;
38479;SDS011;62333;51.980;5.934;2024-01-06T14:12:45;11.18;;;7.78;;
38479;SDS011;62333;51.980;5.934;2024-01-06T14:15:11;13.55;;;8.35;;
38479;SDS011;62333;51.980;5.934;2024-01-06T14:17:37;10.25;;;6.38;;
38479;SDS011;62333;51.980;5.934;2024-01-06T14:20:03;13.90;;;9.23;;
38479;SDS011;62333;51.980;5.934;2024-01-06T14:22:29;10.85;;;7.28;;
38479;SDS011;62333;51.980;5.934;2024-01-06T14:24:55;12.38;;;8.80;;
38479;SDS011;62333;51.980;5.934;2024-01-06T14:27:20;12.45;;;7.90;;
38479;SDS011;62333;51.980;5.934;2024-01-06T14:29:47;12.55;;;8.55;;
38479;SDS011;62333;51.980;5.934;2024-01-06T14:32:13;15.07;;;8.88;;
38479;SDS011;62333;51.980;5.934;2024-01-06T14:34:39;11.27;;;7.10;;
38479;SDS011;62333;51.980;5.934;2024-01-06T14:37:05;9.48;;;6.80;;
38479;SDS011;62333;51.980;5.934;2024-01-06T14:39:31;9.90;;;5.97;;
38479;SDS011;62333;51.980;5.934;2024-01-06T14:41:56;11.10;;;7.05;;
38479;SDS011;62333;51.980;5.934;2024-01-06T14:44:22;11.65;;;7.45;;